createdAt,value
2023-03-31T00:00:34.276Z,40
2023-03-31T00:15:32.479Z,40
2023-03-31T00:30:32.929Z,40
2023-03-31T00:45:32.643Z,40
2023-03-31T01:00:33.090Z,40
2023-03-31T01:15:32.462Z,40
2023-03-31T01:30:32.724Z,40
2023-03-31T01:45:32.379Z,40
2023-03-31T02:00:32.994Z,40
2023-03-31T02:15:32.082Z,40
2023-03-31T02:30:32.957Z,40
2023-03-31T02:45:32.642Z,40
2023-03-31T03:00:32.533Z,40
2023-03-31T03:15:32.391Z,40
2023-03-31T03:30:32.921Z,40
2023-03-31T03:45:33.032Z,40
2023-03-31T04:00:32.469Z,40
2023-03-31T04:15:32.467Z,40
2023-03-31T04:30:32.903Z,40
2023-03-31T04:45:32.969Z,41
2023-03-31T05:00:33.997Z,41
2023-03-31T05:15:35.120Z,41
2023-03-31T05:30:34.225Z,41
2023-03-31T05:45:33.848Z,41
2023-03-31T06:00:35.620Z,41
2023-03-31T06:15:32.424Z,41
2023-03-31T06:30:34.846Z,41
2023-03-31T06:45:32.630Z,41
2023-03-31T07:00:37.309Z,42
2023-03-31T07:15:33.006Z,42
2023-03-31T07:30:36.075Z,42
2023-03-31T07:45:32.757Z,42
2023-03-31T08:00:34.540Z,42
2023-03-31T08:15:32.527Z,42
2023-03-31T08:30:33.344Z,42
2023-03-31T08:45:32.970Z,42
2023-03-31T09:00:35.520Z,42
2023-03-31T09:15:32.312Z,42
2023-03-31T09:30:34.261Z,42
2023-03-31T09:45:32.744Z,42
2023-03-31T10:00:35.219Z,42
2023-03-31T10:15:32.454Z,42
2023-03-31T10:30:33.766Z,42
2023-03-31T10:45:38.684Z,42
2023-03-31T11:00:35.346Z,43
2023-03-31T11:15:32.379Z,42
2023-03-31T11:30:33.174Z,42
2023-03-31T11:45:32.576Z,42
2023-03-31T12:00:36.857Z,42
2023-03-31T12:15:33.130Z,42
2023-03-31T12:30:33.661Z,42
2023-03-31T12:45:32.921Z,42
2023-03-31T13:00:34.728Z,42
2023-03-31T13:15:32.433Z,41
2023-03-31T13:30:32.749Z,41
2023-03-31T13:45:33.047Z,40
2023-03-31T14:00:37.793Z,40
2023-03-31T14:15:32.531Z,40
2023-03-31T14:30:36.832Z,40
2023-03-31T14:45:33.280Z,39
2023-03-31T15:00:32.702Z,39
2023-03-31T15:15:32.895Z,39
2023-03-31T15:30:37.887Z,39
2023-03-31T15:45:32.669Z,39
2023-03-31T16:00:37.434Z,38
2023-03-31T16:15:32.734Z,38
2023-03-31T16:30:36.742Z,38
2023-03-31T16:45:33.026Z,38
2023-03-31T17:00:36.504Z,38
2023-03-31T17:15:34.117Z,38
2023-03-31T17:30:36.247Z,38
2023-03-31T17:45:33.052Z,38
2023-03-31T18:00:37.668Z,38
2023-03-31T18:15:32.502Z,38
2023-03-31T18:30:33.220Z,38
2023-03-31T18:45:33.148Z,38
2023-03-31T19:00:36.024Z,37
2023-03-31T19:15:33.453Z,37
2023-03-31T19:30:33.071Z,37
2023-03-31T19:45:32.750Z,37
2023-03-31T20:00:35.030Z,37
2023-03-31T20:15:33.214Z,37
2023-03-31T20:30:32.747Z,36
2023-03-31T20:45:33.004Z,36
2023-03-31T21:00:33.653Z,36
2023-03-31T21:15:33.452Z,36
2023-03-31T21:30:32.871Z,36
2023-03-31T21:45:33.697Z,36
2023-03-31T22:00:33.425Z,35
2023-03-31T22:15:32.967Z,35
2023-03-31T22:30:32.788Z,35
2023-03-31T22:45:33.510Z,35
2023-03-31T23:00:32.722Z,35
2023-03-31T23:15:33.580Z,35
2023-03-31T23:30:32.552Z,36
2023-03-31T23:45:33.105Z,36
